sensor_id;sensor_type;location;lat;lon;timestamp;P1;durP1;ratioP1;P2;durP2;ratioP2
45316;SDS011;31053;55.870;37.592;2023-07-28T00:00:20;16.75;;;12.55;;
45316;SDS011;31053;55.870;37.592;2023-07-28T00:03:24;21.48;;;13.13;;
45316;SDS011;31053;55.870;37.592;2023-07-28T00:06:29;22.27;;;15.68;;
45316;SDS011;31053;55.870;37.592;2023-07-28T00:09:34;21.75;;;15.40;;
45316;SDS011;31053;55.870;37.592;2023-07-28T00:12:39;20.98;;;15.20;;
45316;SDS011;31053;55.870;37.592;2023-07-28T00:15:43;25.48;;;15.25;;
45316;SDS011;31053;55.870;37.592;2023-07-28T00:18:48;24.13;;;15.40;;
45316;SDS011;31053;55.870;37.592;2023-07-28T00:21:52;28.52;;;16.15;;
45316;SDS011;31053;55.870;37.592;2023-07-28T00:24:57;24.10;;;16.30;;
45316;SDS011;31053;55.870;37.592;2023-07-28T00:28:01;22.77;;;15.68;;
45316;SDS011;31053;55.870;37.592;2023-07-28T00:31:06;27.20;;;15.48;;
45316;SDS011;31053;55.870;37.592;2023-07-28T00:34:10;18.63;;;13.02;;
45316;SDS011;31053;55.870;37.592;2023-07-28T00:37:14;24.75;;;16.25;;
45316;SDS011;31053;55.870;37.592;2023-07-28T00:40:19;19.67;;;12.50;;
45316;SDS011;31053;55.870;37.592;2023-07-28T00:43:27;14.57;;;11.38;;
45316;SDS011;31053;55.870;37.592;2023-07-28T00:46:32;16.98;;;11.90;;
45316;SDS011;31053;55.870;37.592;2023-07-28T00:49:37;28.60;;;18.33;;
45316;SDS011;31053;55.870;37.592;2023-07-28T00:55:47;17.02;;;11.93;;
45316;SDS011;31053;55.870;37.592;2023-07-28T00:58:52;26.42;;;13.30;;
45316;SDS011;31053;55.870;37.592;2023-07-28T01:01:57;24.05;;;12.73;;
45316;SDS011;31053;55.870;37.592;2023-07-28T01:05:02;16.95;;;12.73;;
45316;SDS011;31053;55.870;37.592;2023-07-28T01:11:20;23.20;;;12.30;;
45316;SDS011;31053;55.870;37.592;2023-07-28T01:14:25;20.50;;;11.80;;
45316;SDS011;31053;55.870;37.592;2023-07-28T01:17:30;18.50;;;13.20;;
45316;SDS011;31053;55.870;37.592;2023-07-28T01:20:35;19.02;;;13.60;;
45316;SDS011;31053;55.870;37.592;2023-07-28T01:27:10;17.48;;;12.55;;
45316;SDS011;31053;55.870;37.592;2023-07-28T01:30:15;15.98;;;13.68;;
45316;SDS011;31053;55.870;37.592;2023-07-28T01:33:20;17.65;;;12.38;;
45316;SDS011;31053;55.870;37.592;2023-07-28T01:36:25;19.40;;;13.75;;
45316;SDS011;31053;55.870;37.592;2023-07-28T01:39:29;19.63;;;12.70;;
45316;SDS011;31053;55.870;37.592;2023-07-28T01:42:34;18.77;;;13.55;;
45316;SDS011;31053;55.870;37.592;2023-07-28T01:45:38;16.88;;;11.63;;
45316;SDS011;31053;55.870;37.592;2023-07-28T01:48:43;19.77;;;12.10;;
45316;SDS011;31053;55.870;37.592;2023-07-28T01:51:48;17.13;;;12.77;;
45316;SDS011;31053;55.870;37.592;2023-07-28T01:54:53;16.65;;;10.57;;
45316;SDS011;31053;55.870;37.592;2023-07-28T01:57:58;22.40;;;11.93;;
45316;SDS011;31053;55.870;37.592;2023-07-28T02:04:09;14.27;;;11.07;;
45316;SDS011;31053;55.870;37.592;2023-07-28T02:07:13;16.30;;;10.88;;
45316;SDS011;31053;55.870;37.592;2023-07-28T02:10:18;12.98;;;11.10;;
45316;SDS011;31053;55.870;37.592;2023-07-28T02:13:24;18.13;;;12.65;;
45316;SDS011;31053;55.870;37.592;2023-07-28T02:16:28;19.88;;;14.15;;
45316;SDS011;31053;55.870;37.592;2023-07-28T02:19:35;24.80;;;15.85;;
45316;SDS011;31053;55.870;37.592;2023-07-28T02:22:39;19.55;;;14.65;;
45316;SDS011;31053;55.870;37.592;2023-07-28T02:25:44;20.95;;;13.20;;
45316;SDS011;31053;55.870;37.592;2023-07-28T02:28:49;17.73;;;13.25;;
45316;SDS011;31053;55.870;37.592;2023-07-28T02:31:54;23.05;;;14.57;;
45316;SDS011;31053;55.870;37.592;2023-07-28T02:34:59;19.48;;;15.25;;
45316;SDS011;31053;55.870;37.592;2023-07-28T02:38:04;23.10;;;15.77;;
45316;SDS011;31053;55.870;37.592;2023-07-28T02:41:09;22.23;;;17.17;;
45316;SDS011;31053;55.870;37.592;2023-07-28T02:44:14;21.58;;;15.63;;
45316;SDS011;31053;55.870;37.592;2023-07-28T02:47:19;25.73;;;16.70;;
45316;SDS011;31053;55.870;37.592;2023-07-28T02:50:23;17.63;;;12.02;;
45316;SDS011;31053;55.870;37.592;2023-07-28T02:53:28;18.42;;;12.27;;
45316;SDS011;31053;55.870;37.592;2023-07-28T02:56:33;22.50;;;12.80;;
45316;SDS011;31053;55.870;37.592;2023-07-28T02:59:42;19.15;;;12.50;;
45316;SDS011;31053;55.870;37.592;2023-07-28T03:02:47;22.13;;;12.57;;
45316;SDS011;31053;55.870;37.592;2023-07-28T03:05:52;16.77;;;11.82;;
45316;SDS011;31053;55.870;37.592;2023-07-28T03:09:04;20.65;;;13.48;;
45316;SDS011;31053;55.870;37.592;2023-07-28T03:12:31;17.25;;;11.52;;
45316;SDS011;31053;55.870;37.592;2023-07-28T03:15:36;24.00;;;12.13;;
45316;SDS011;31053;55.870;37.592;2023-07-28T03:18:40;20.55;;;14.18;;
45316;SDS011;31053;55.870;37.592;2023-07-28T03:21:45;21.60;;;15.05;;
45316;SDS011;31053;55.870;37.592;2023-07-28T03:24:50;23.38;;;13.45;;
45316;SDS011;31053;55.870;37.592;2023-07-28T03:27:55;21.27;;;13.30;;
45316;SDS011;31053;55.870;37.592;2023-07-28T03:31:00;17.95;;;13.40;;
45316;SDS011;31053;55.870;37.592;2023-07-28T03:34:05;16.60;;;11.70;;
45316;SDS011;31053;55.870;37.592;2023-07-28T03:37:10;17.38;;;10.93;;
45316;SDS011;31053;55.870;37.592;2023-07-28T03:40:15;16.23;;;10.68;;
45316;SDS011;31053;55.870;37.592;2023-07-28T03:43:29;18.33;;;11.05;;
45316;SDS011;31053;55.870;37.592;2023-07-28T03:46:34;15.90;;;12.35;;
45316;SDS011;31053;55.870;37.592;2023-07-28T03:49:39;25.50;;;12.88;;
45316;SDS011;31053;55.870;37.592;2023-07-28T03:52:44;18.20;;;10.77;;
45316;SDS011;31053;55.870;37.592;2023-07-28T03:55:48;16.25;;;11.15;;
45316;SDS011;31053;55.870;37.592;2023-07-28T03:58:53;33.70;;;11.88;;
45316;SDS011;31053;55.870;37.592;2023-07-28T04:01:58;19.25;;;13.35;;
45316;SDS011;31053;55.870;37.592;2023-07-28T04:05:03;36.28;;;16.25;;
45316;SDS011;31053;55.870;37.592;2023-07-28T04:08:08;22.48;;;13.63;;
45316;SDS011;31053;55.870;37.592;2023-07-28T04:11:12;24.90;;;14.18;;
45316;SDS011;31053;55.870;37.592;2023-07-28T04:14:19;20.52;;;14.30;;
45316;SDS011;31053;55.870;37.592;2023-07-28T04:17:24;23.02;;;14.43;;
45316;SDS011;31053;55.870;37.592;2023-07-28T04:20:29;18.15;;;12.65;;
45316;SDS011;31053;55.870;37.592;2023-07-28T04:23:33;19.50;;;13.68;;
45316;SDS011;31053;55.870;37.592;2023-07-28T04:26:38;19.70;;;12.68;;
45316;SDS011;31053;55.870;37.592;2023-07-28T04:29:43;26.58;;;14.73;;
45316;SDS011;31053;55.870;37.592;2023-07-28T04:32:49;27.20;;;16.40;;
45316;SDS011;31053;55.870;37.592;2023-07-28T04:35:57;21.83;;;14.70;;
45316;SDS011;31053;55.870;37.592;2023-07-28T04:39:10;28.60;;;14.85;;
45316;SDS011;31053;55.870;37.592;2023-07-28T04:42:15;26.88;;;16.20;;
45316;SDS011;31053;55.870;37.592;2023-07-28T04:45:23;25.15;;;15.90;;
45316;SDS011;31053;55.870;37.592;2023-07-28T04:48:28;23.00;;;15.50;;
45316;SDS011;31053;55.870;37.592;2023-07-28T04:51:33;26.92;;;17.65;;
45316;SDS011;31053;55.870;37.592;2023-07-28T04:55:00;24.02;;;17.60;;
45316;SDS011;31053;55.870;37.592;2023-07-28T05:01:28;32.67;;;16.95;;
45316;SDS011;31053;55.870;37.592;2023-07-28T05:04:32;29.92;;;16.35;;
45316;SDS011;31053;55.870;37.592;2023-07-28T05:07:36;27.88;;;17.55;;
45316;SDS011;31053;55.870;37.592;2023-07-28T05:10:41;21.45;;;15.50;;
45316;SDS011;31053;55.870;37.592;2023-07-28T05:13:47;17.65;;;12.65;;
45316;SDS011;31053;55.870;37.592;2023-07-28T05:16:51;28.50;;;17.38;;
45316;SDS011;31053;55.870;37.592;2023-07-28T05:20:10;26.13;;;16.05;;
45316;SDS011;31053;55.870;37.592;2023-07-28T05:23:25;24.70;;;14.30;;
45316;SDS011;31053;55.870;37.592;2023-07-28T05:26:29;22.67;;;14.93;;
45316;SDS011;31053;55.870;37.592;2023-07-28T05:29:34;22.35;;;13.90;;
45316;SDS011;31053;55.870;37.592;2023-07-28T05:32:43;27.52;;;16.02;;
45316;SDS011;31053;55.870;37.592;2023-07-28T05:36:04;19.98;;;14.15;;
45316;SDS011;31053;55.870;37.592;2023-07-28T05:39:10;24.45;;;14.57;;
45316;SDS011;31053;55.870;37.592;2023-07-28T05:42:19;18.65;;;13.25;;
45316;SDS011;31053;55.870;37.592;2023-07-28T05:45:26;23.95;;;15.60;;
45316;SDS011;31053;55.870;37.592;2023-07-28T05:48:30;16.63;;;13.82;;
45316;SDS011;31053;55.870;37.592;2023-07-28T05:51:35;23.80;;;14.82;;
45316;SDS011;31053;55.870;37.592;2023-07-28T05:54:40;21.15;;;15.10;;
45316;SDS011;31053;55.870;37.592;2023-07-28T05:57:44;25.80;;;14.60;;
45316;SDS011;31053;55.870;37.592;2023-07-28T06:00:50;22.13;;;14.00;;
45316;SDS011;31053;55.870;37.592;2023-07-28T06:04:14;25.67;;;14.02;;
45316;SDS011;31053;55.870;37.592;2023-07-28T06:07:24;20.50;;;13.80;;
45316;SDS011;31053;55.870;37.592;2023-07-28T06:10:30;22.35;;;13.32;;
45316;SDS011;31053;55.870;37.592;2023-07-28T06:13:36;20.05;;;13.02;;
45316;SDS011;31053;55.870;37.592;2023-07-28T06:16:43;19.23;;;13.45;;
45316;SDS011;31053;55.870;37.592;2023-07-28T06:19:48;22.27;;;11.85;;
45316;SDS011;31053;55.870;37.592;2023-07-28T06:22:52;14.38;;;11.10;;
45316;SDS011;31053;55.870;37.592;2023-07-28T06:25:57;17.63;;;11.35;;
45316;SDS011;31053;55.870;37.592;2023-07-28T06:29:02;21.25;;;11.82;;
45316;SDS011;31053;55.870;37.592;2023-07-28T06:32:07;18.30;;;11.40;;
45316;SDS011;31053;55.870;37.592;2023-07-28T06:35:13;21.98;;;13.07;;
45316;SDS011;31053;55.870;37.592;2023-07-28T06:38:18;18.45;;;11.23;;
45316;SDS011;31053;55.870;37.592;2023-07-28T06:41:23;14.10;;;9.93;;
45316;SDS011;31053;55.870;37.592;2023-07-28T06:44:35;15.32;;;9.98;;
45316;SDS011;31053;55.870;37.592;2023-07-28T06:47:41;20.25;;;9.27;;
45316;SDS011;31053;55.870;37.592;2023-07-28T06:50:49;16.35;;;8.32;;
45316;SDS011;31053;55.870;37.592;2023-07-28T06:53:53;20.45;;;10.93;;
45316;SDS011;31053;55.870;37.592;2023-07-28T06:56:58;13.77;;;9.77;;
45316;SDS011;31053;55.870;37.592;2023-07-28T07:00:03;16.60;;;10.32;;
45316;SDS011;31053;55.870;37.592;2023-07-28T07:03:11;26.02;;;10.70;;
45316;SDS011;31053;55.870;37.592;2023-07-28T07:06:15;22.25;;;11.07;;
45316;SDS011;31053;55.870;37.592;2023-07-28T07:09:21;15.77;;;9.68;;
45316;SDS011;31053;55.870;37.592;2023-07-28T07:12:26;16.55;;;9.35;;
45316;SDS011;31053;55.870;37.592;2023-07-28T07:15:30;18.05;;;9.38;;
45316;SDS011;31053;55.870;37.592;2023-07-28T07:18:38;15.63;;;7.03;;
45316;SDS011;31053;55.870;37.592;2023-07-28T07:21:43;12.13;;;8.00;;
45316;SDS011;31053;55.870;37.592;2023-07-28T07:24:49;14.10;;;7.95;;
45316;SDS011;31053;55.870;37.592;2023-07-28T07:27:56;18.73;;;10.10;;
45316;SDS011;31053;55.870;37.592;2023-07-28T07:31:04;22.17;;;11.65;;
45316;SDS011;31053;55.870;37.592;2023-07-28T07:34:09;19.20;;;12.23;;
45316;SDS011;31053;55.870;37.592;2023-07-28T07:37:13;18.88;;;10.48;;
45316;SDS011;31053;55.870;37.592;2023-07-28T07:40:18;16.88;;;10.48;;
45316;SDS011;31053;55.870;37.592;2023-07-28T07:43:23;16.02;;;10.00;;
45316;SDS011;31053;55.870;37.592;2023-07-28T07:46:28;19.58;;;11.13;;
45316;SDS011;31053;55.870;37.592;2023-07-28T07:49:34;19.88;;;11.75;;
45316;SDS011;31053;55.870;37.592;2023-07-28T07:52:39;21.70;;;14.07;;
45316;SDS011;31053;55.870;37.592;2023-07-28T07:55:44;13.25;;;8.27;;
45316;SDS011;31053;55.870;37.592;2023-07-28T07:58:48;19.20;;;8.32;;
45316;SDS011;31053;55.870;37.592;2023-07-28T08:01:53;21.85;;;11.35;;
45316;SDS011;31053;55.870;37.592;2023-07-28T08:05:01;13.98;;;8.07;;
45316;SDS011;31053;55.870;37.592;2023-07-28T08:08:08;18.10;;;7.30;;
45316;SDS011;31053;55.870;37.592;2023-07-28T08:11:14;12.73;;;8.27;;
45316;SDS011;31053;55.870;37.592;2023-07-28T08:14:19;11.43;;;7.45;;
45316;SDS011;31053;55.870;37.592;2023-07-28T08:17:23;12.68;;;7.40;;
45316;SDS011;31053;55.870;37.592;2023-07-28T08:20:28;22.92;;;11.20;;
45316;SDS011;31053;55.870;37.592;2023-07-28T08:23:33;19.15;;;8.77;;
45316;SDS011;31053;55.870;37.592;2023-07-28T08:26:38;12.23;;;7.40;;
45316;SDS011;31053;55.870;37.592;2023-07-28T08:29:43;15.45;;;8.38;;
45316;SDS011;31053;55.870;37.592;2023-07-28T08:32:47;14.77;;;7.43;;
45316;SDS011;31053;55.870;37.592;2023-07-28T08:35:53;17.07;;;7.77;;
45316;SDS011;31053;55.870;37.592;2023-07-28T08:38:57;10.82;;;5.97;;
45316;SDS011;31053;55.870;37.592;2023-07-28T08:42:02;9.80;;;4.47;;
45316;SDS011;31053;55.870;37.592;2023-07-28T08:45:08;11.67;;;5.17;;
45316;SDS011;31053;55.870;37.592;2023-07-28T08:48:12;6.50;;;3.83;;
45316;SDS011;31053;55.870;37.592;2023-07-28T08:51:17;9.13;;;4.38;;
45316;SDS011;31053;55.870;37.592;2023-07-28T08:58:18;9.85;;;4.55;;
45316;SDS011;31053;55.870;37.592;2023-07-28T09:01:24;5.43;;;3.92;;
45316;SDS011;31053;55.870;37.592;2023-07-28T09:04:29;7.15;;;3.72;;
45316;SDS011;31053;55.870;37.592;2023-07-28T09:07:36;9.20;;;4.93;;
45316;SDS011;31053;55.870;37.592;2023-07-28T09:10:45;6.82;;;4.82;;
45316;SDS011;31053;55.870;37.592;2023-07-28T09:13:53;14.45;;;8.82;;
45316;SDS011;31053;55.870;37.592;2023-07-28T09:20:14;10.52;;;5.38;;
45316;SDS011;31053;55.870;37.592;2023-07-28T09:23:26;4.68;;;3.47;;
45316;SDS011;31053;55.870;37.592;2023-07-28T09:26:39;6.55;;;4.70;;
45316;SDS011;31053;55.870;37.592;2023-07-28T09:29:47;5.68;;;3.67;;
45316;SDS011;31053;55.870;37.592;2023-07-28T09:32:53;8.75;;;3.75;;
45316;SDS011;31053;55.870;37.592;2023-07-28T09:36:06;6.88;;;5.07;;
45316;SDS011;31053;55.870;37.592;2023-07-28T09:39:11;6.88;;;4.07;;
45316;SDS011;31053;55.870;37.592;2023-07-28T09:42:16;8.90;;;4.30;;
45316;SDS011;31053;55.870;37.592;2023-07-28T09:45:21;6.90;;;4.50;;
45316;SDS011;31053;55.870;37.592;2023-07-28T09:48:26;11.88;;;5.30;;
45316;SDS011;31053;55.870;37.592;2023-07-28T09:51:34;14.88;;;7.18;;
45316;SDS011;31053;55.870;37.592;2023-07-28T09:54:40;16.27;;;7.57;;
45316;SDS011;31053;55.870;37.592;2023-07-28T09:57:50;10.57;;;7.65;;
45316;SDS011;31053;55.870;37.592;2023-07-28T10:00:57;9.75;;;6.75;;
45316;SDS011;31053;55.870;37.592;2023-07-28T10:04:02;8.65;;;6.03;;
45316;SDS011;31053;55.870;37.592;2023-07-28T10:07:07;7.22;;;6.47;;
45316;SDS011;31053;55.870;37.592;2023-07-28T10:10:13;12.27;;;6.93;;
45316;SDS011;31053;55.870;37.592;2023-07-28T10:13:19;8.83;;;5.53;;
45316;SDS011;31053;55.870;37.592;2023-07-28T10:16:38;35.65;;;12.35;;
45316;SDS011;31053;55.870;37.592;2023-07-28T10:19:43;12.60;;;8.35;;
45316;SDS011;31053;55.870;37.592;2023-07-28T10:22:48;9.05;;;6.53;;
45316;SDS011;31053;55.870;37.592;2023-07-28T10:25:58;11.27;;;6.10;;
45316;SDS011;31053;55.870;37.592;2023-07-28T10:29:13;11.43;;;7.15;;
45316;SDS011;31053;55.870;37.592;2023-07-28T10:32:26;32.28;;;16.65;;
45316;SDS011;31053;55.870;37.592;2023-07-28T10:35:33;37.28;;;18.73;;
45316;SDS011;31053;55.870;37.592;2023-07-28T10:38:38;11.30;;;8.25;;
45316;SDS011;31053;55.870;37.592;2023-07-28T10:45:13;24.85;;;12.15;;
45316;SDS011;31053;55.870;37.592;2023-07-28T10:48:18;17.77;;;10.70;;
45316;SDS011;31053;55.870;37.592;2023-07-28T10:51:24;14.50;;;10.25;;
45316;SDS011;31053;55.870;37.592;2023-07-28T10:54:38;10.88;;;8.10;;
45316;SDS011;31053;55.870;37.592;2023-07-28T10:57:43;9.15;;;7.15;;
45316;SDS011;31053;55.870;37.592;2023-07-28T11:00:50;11.33;;;8.37;;
45316;SDS011;31053;55.870;37.592;2023-07-28T11:03:55;13.02;;;7.65;;
45316;SDS011;31053;55.870;37.592;2023-07-28T11:06:59;14.32;;;8.55;;
45316;SDS011;31053;55.870;37.592;2023-07-28T11:10:04;12.52;;;8.55;;
45316;SDS011;31053;55.870;37.592;2023-07-28T11:13:10;13.20;;;9.63;;
45316;SDS011;31053;55.870;37.592;2023-07-28T11:19:59;12.23;;;8.07;;
45316;SDS011;31053;55.870;37.592;2023-07-28T11:23:04;7.72;;;6.50;;
45316;SDS011;31053;55.870;37.592;2023-07-28T11:26:09;6.97;;;5.70;;
45316;SDS011;31053;55.870;37.592;2023-07-28T11:29:21;9.10;;;5.57;;
45316;SDS011;31053;55.870;37.592;2023-07-28T11:33:41;8.98;;;6.40;;
45316;SDS011;31053;55.870;37.592;2023-07-28T11:37:15;7.55;;;5.82;;
45316;SDS011;31053;55.870;37.592;2023-07-28T11:40:56;9.35;;;6.32;;
45316;SDS011;31053;55.870;37.592;2023-07-28T11:44:23;9.35;;;7.45;;
45316;SDS011;31053;55.870;37.592;2023-07-28T11:51:40;10.90;;;7.05;;
45316;SDS011;31053;55.870;37.592;2023-07-28T11:54:48;9.98;;;6.97;;
45316;SDS011;31053;55.870;37.592;2023-07-28T11:57:52;9.02;;;6.88;;
45316;SDS011;31053;55.870;37.592;2023-07-28T12:00:58;8.10;;;6.78;;
45316;SDS011;31053;55.870;37.592;2023-07-28T12:07:33;10.13;;;7.32;;
45316;SDS011;31053;55.870;37.592;2023-07-28T12:10:48;9.80;;;5.93;;
45316;SDS011;31053;55.870;37.592;2023-07-28T12:14:00;9.63;;;6.85;;
45316;SDS011;31053;55.870;37.592;2023-07-28T12:17:12;14.10;;;6.55;;
45316;SDS011;31053;55.870;37.592;2023-07-28T12:20:42;8.68;;;6.55;;
45316;SDS011;31053;55.870;37.592;2023-07-28T12:27:54;4.78;;;3.45;;
45316;SDS011;31053;55.870;37.592;2023-07-28T12:30:59;4.53;;;2.58;;
45316;SDS011;31053;55.870;37.592;2023-07-28T12:34:05;8.02;;;2.47;;
45316;SDS011;31053;55.870;37.592;2023-07-28T12:37:10;4.95;;;2.38;;
45316;SDS011;31053;55.870;37.592;2023-07-28T12:40:18;3.97;;;2.47;;
45316;SDS011;31053;55.870;37.592;2023-07-28T12:43:26;2.95;;;2.25;;
45316;SDS011;31053;55.870;37.592;2023-07-28T12:46:33;2.20;;;1.58;;
45316;SDS011;31053;55.870;37.592;2023-07-28T12:49:38;4.88;;;2.63;;
45316;SDS011;31053;55.870;37.592;2023-07-28T12:52:43;4.85;;;2.25;;
45316;SDS011;31053;55.870;37.592;2023-07-28T12:55:50;9.35;;;3.88;;
45316;SDS011;31053;55.870;37.592;2023-07-28T12:58:54;4.82;;;3.08;;
45316;SDS011;31053;55.870;37.592;2023-07-28T13:02:04;3.03;;;1.88;;
45316;SDS011;31053;55.870;37.592;2023-07-28T13:05:12;4.70;;;2.20;;
45316;SDS011;31053;55.870;37.592;2023-07-28T13:08:16;2.90;;;1.77;;
45316;SDS011;31053;55.870;37.592;2023-07-28T13:11:24;2.10;;;1.38;;
45316;SDS011;31053;55.870;37.592;2023-07-28T13:14:28;3.20;;;1.92;;
45316;SDS011;31053;55.870;37.592;2023-07-28T13:17:35;3.83;;;2.20;;
45316;SDS011;31053;55.870;37.592;2023-07-28T13:24:30;4.00;;;2.83;;
45316;SDS011;31053;55.870;37.592;2023-07-28T13:27:35;4.80;;;1.85;;
45316;SDS011;31053;55.870;37.592;2023-07-28T13:30:40;5.25;;;3.65;;
45316;SDS011;31053;55.870;37.592;2023-07-28T13:33:45;2.97;;;1.85;;
45316;SDS011;31053;55.870;37.592;2023-07-28T13:36:50;2.03;;;1.80;;
45316;SDS011;31053;55.870;37.592;2023-07-28T13:39:55;2.53;;;1.52;;
45316;SDS011;31053;55.870;37.592;2023-07-28T13:43:00;3.55;;;1.58;;
45316;SDS011;31053;55.870;37.592;2023-07-28T13:46:07;2.47;;;1.43;;
45316;SDS011;31053;55.870;37.592;2023-07-28T13:49:11;3.28;;;1.55;;
45316;SDS011;31053;55.870;37.592;2023-07-28T13:52:16;2.88;;;1.70;;
45316;SDS011;31053;55.870;37.592;2023-07-28T13:55:22;2.42;;;1.50;;
45316;SDS011;31053;55.870;37.592;2023-07-28T13:58:37;2.95;;;1.50;;
45316;SDS011;31053;55.870;37.592;2023-07-28T14:01:42;4.93;;;2.08;;
45316;SDS011;31053;55.870;37.592;2023-07-28T14:04:50;10.38;;;2.28;;
45316;SDS011;31053;55.870;37.592;2023-07-28T14:08:05;4.32;;;2.03;;
45316;SDS011;31053;55.870;37.592;2023-07-28T14:11:13;7.80;;;2.30;;
45316;SDS011;31053;55.870;37.592;2023-07-28T14:14:44;4.57;;;2.80;;
45316;SDS011;31053;55.870;37.592;2023-07-28T14:17:54;6.18;;;2.17;;
45316;SDS011;31053;55.870;37.592;2023-07-28T14:21:01;5.95;;;1.83;;
45316;SDS011;31053;55.870;37.592;2023-07-28T14:24:08;5.05;;;1.48;;
45316;SDS011;31053;55.870;37.592;2023-07-28T14:27:23;2.10;;;1.63;;
45316;SDS011;31053;55.870;37.592;2023-07-28T14:30:46;3.92;;;1.70;;
45316;SDS011;31053;55.870;37.592;2023-07-28T14:34:02;3.60;;;1.85;;
45316;SDS011;31053;55.870;37.592;2023-07-28T14:37:08;6.55;;;2.25;;
45316;SDS011;31053;55.870;37.592;2023-07-28T14:40:15;4.35;;;1.20;;
45316;SDS011;31053;55.870;37.592;2023-07-28T14:43:20;3.75;;;1.40;;
45316;SDS011;31053;55.870;37.592;2023-07-28T14:46:26;4.18;;;1.58;;
45316;SDS011;31053;55.870;37.592;2023-07-28T14:49:31;3.38;;;2.13;;
45316;SDS011;31053;55.870;37.592;2023-07-28T14:52:36;4.65;;;1.83;;
45316;SDS011;31053;55.870;37.592;2023-07-28T14:58:47;4.80;;;2.50;;
45316;SDS011;31053;55.870;37.592;2023-07-28T15:01:52;5.38;;;2.83;;
45316;SDS011;31053;55.870;37.592;2023-07-28T15:04:57;5.97;;;2.80;;
45316;SDS011;31053;55.870;37.592;2023-07-28T15:08:04;3.63;;;1.60;;
45316;SDS011;31053;55.870;37.592;2023-07-28T15:11:16;3.42;;;2.00;;
45316;SDS011;31053;55.870;37.592;2023-07-28T15:14:26;3.97;;;2.20;;
45316;SDS011;31053;55.870;37.592;2023-07-28T15:18:01;4.60;;;2.75;;
45316;SDS011;31053;55.870;37.592;2023-07-28T15:21:06;2.78;;;1.65;;
45316;SDS011;31053;55.870;37.592;2023-07-28T15:24:17;3.42;;;1.63;;
45316;SDS011;31053;55.870;37.592;2023-07-28T15:27:27;3.63;;;1.58;;
45316;SDS011;31053;55.870;37.592;2023-07-28T15:30:36;2.83;;;1.90;;
45316;SDS011;31053;55.870;37.592;2023-07-28T15:33:44;8.95;;;1.95;;
45316;SDS011;31053;55.870;37.592;2023-07-28T15:36:48;2.17;;;1.17;;
45316;SDS011;31053;55.870;37.592;2023-07-28T15:39:53;2.30;;;1.55;;
45316;SDS011;31053;55.870;37.592;2023-07-28T15:42:58;4.25;;;2.35;;
45316;SDS011;31053;55.870;37.592;2023-07-28T15:46:06;5.30;;;1.83;;
45316;SDS011;31053;55.870;37.592;2023-07-28T15:49:19;5.03;;;1.38;;
45316;SDS011;31053;55.870;37.592;2023-07-28T15:52:24;3.78;;;2.10;;
45316;SDS011;31053;55.870;37.592;2023-07-28T15:55:28;5.95;;;1.95;;
45316;SDS011;31053;55.870;37.592;2023-07-28T15:58:33;8.80;;;1.77;;
45316;SDS011;31053;55.870;37.592;2023-07-28T16:01:47;6.07;;;2.03;;
45316;SDS011;31053;55.870;37.592;2023-07-28T16:04:52;6.32;;;1.85;;
45316;SDS011;31053;55.870;37.592;2023-07-28T16:07:57;4.28;;;2.00;;
45316;SDS011;31053;55.870;37.592;2023-07-28T16:11:02;4.03;;;1.85;;
45316;SDS011;31053;55.870;37.592;2023-07-28T16:14:08;2.42;;;0.95;;
45316;SDS011;31053;55.870;37.592;2023-07-28T16:17:13;5.50;;;1.67;;
45316;SDS011;31053;55.870;37.592;2023-07-28T16:20:18;2.20;;;1.10;;
45316;SDS011;31053;55.870;37.592;2023-07-28T16:23:23;5.03;;;1.65;;
45316;SDS011;31053;55.870;37.592;2023-07-28T16:26:27;2.25;;;1.17;;
45316;SDS011;31053;55.870;37.592;2023-07-28T16:29:32;3.85;;;1.20;;
45316;SDS011;31053;55.870;37.592;2023-07-28T16:32:37;0.98;;;0.60;;
45316;SDS011;31053;55.870;37.592;2023-07-28T16:35:41;5.57;;;0.70;;
45316;SDS011;31053;55.870;37.592;2023-07-28T16:38:48;1.45;;;0.90;;
45316;SDS011;31053;55.870;37.592;2023-07-28T16:41:55;5.15;;;0.85;;
45316;SDS011;31053;55.870;37.592;2023-07-28T16:45:02;7.90;;;1.45;;
45316;SDS011;31053;55.870;37.592;2023-07-28T16:48:09;1.33;;;0.77;;
45316;SDS011;31053;55.870;37.592;2023-07-28T16:51:14;0.98;;;0.60;;
45316;SDS011;31053;55.870;37.592;2023-07-28T16:54:18;4.25;;;2.15;;
45316;SDS011;31053;55.870;37.592;2023-07-28T16:57:23;2.67;;;0.75;;
45316;SDS011;31053;55.870;37.592;2023-07-28T17:00:28;2.30;;;1.00;;
45316;SDS011;31053;55.870;37.592;2023-07-28T17:03:33;5.18;;;0.90;;
45316;SDS011;31053;55.870;37.592;2023-07-28T17:06:38;1.20;;;0.80;;
45316;SDS011;31053;55.870;37.592;2023-07-28T17:09:43;3.08;;;0.82;;
45316;SDS011;31053;55.870;37.592;2023-07-28T17:12:48;1.92;;;0.88;;
45316;SDS011;31053;55.870;37.592;2023-07-28T17:15:55;4.30;;;0.60;;
45316;SDS011;31053;55.870;37.592;2023-07-28T17:19:00;1.80;;;0.45;;
45316;SDS011;31053;55.870;37.592;2023-07-28T17:22:04;3.10;;;0.70;;
45316;SDS011;31053;55.870;37.592;2023-07-28T17:25:09;2.88;;;0.77;;
45316;SDS011;31053;55.870;37.592;2023-07-28T17:28:14;5.57;;;0.82;;
45316;SDS011;31053;55.870;37.592;2023-07-28T17:31:19;1.25;;;0.70;;
45316;SDS011;31053;55.870;37.592;2023-07-28T17:34:25;2.85;;;0.80;;
45316;SDS011;31053;55.870;37.592;2023-07-28T17:37:30;3.55;;;0.93;;
45316;SDS011;31053;55.870;37.592;2023-07-28T17:40:36;1.80;;;0.88;;
45316;SDS011;31053;55.870;37.592;2023-07-28T17:43:41;5.47;;;1.30;;
45316;SDS011;31053;55.870;37.592;2023-07-28T17:46:47;20.63;;;12.20;;
45316;SDS011;31053;55.870;37.592;2023-07-28T17:49:51;13.15;;;9.30;;
45316;SDS011;31053;55.870;37.592;2023-07-28T17:52:56;6.88;;;4.25;;
45316;SDS011;31053;55.870;37.592;2023-07-28T17:56:05;9.40;;;3.08;;
45316;SDS011;31053;55.870;37.592;2023-07-28T17:59:12;3.85;;;1.73;;
45316;SDS011;31053;55.870;37.592;2023-07-28T18:02:17;10.25;;;7.15;;
45316;SDS011;31053;55.870;37.592;2023-07-28T18:05:22;4.57;;;3.22;;
45316;SDS011;31053;55.870;37.592;2023-07-28T18:08:29;3.88;;;1.48;;
45316;SDS011;31053;55.870;37.592;2023-07-28T18:11:33;3.47;;;1.25;;
45316;SDS011;31053;55.870;37.592;2023-07-28T18:14:38;13.05;;;1.88;;
45316;SDS011;31053;55.870;37.592;2023-07-28T18:17:43;3.13;;;1.10;;
45316;SDS011;31053;55.870;37.592;2023-07-28T18:20:48;4.75;;;1.08;;
45316;SDS011;31053;55.870;37.592;2023-07-28T18:23:52;10.70;;;1.48;;
45316;SDS011;31053;55.870;37.592;2023-07-28T18:26:57;3.10;;;1.27;;
45316;SDS011;31053;55.870;37.592;2023-07-28T18:30:01;3.58;;;1.30;;
